createdAt,value
2023-03-06T00:01:09.721Z,97.10
2023-03-06T00:03:55.235Z,96.90
2023-03-06T00:06:40.595Z,97.10
2023-03-06T00:09:25.911Z,97.10
2023-03-06T00:12:11.331Z,97.10
2023-03-06T00:14:56.720Z,97.20
2023-03-06T00:17:42.178Z,97.10
2023-03-06T00:20:27.684Z,96.90
2023-03-06T00:23:13.138Z,97.00
2023-03-06T00:25:58.161Z,97.10
2023-03-06T00:28:43.633Z,97.00
2023-03-06T00:31:29.094Z,97.00
2023-03-06T00:34:14.980Z,97.00
2023-03-06T00:36:59.943Z,97.10
2023-03-06T00:39:46.046Z,97.10
2023-03-06T00:42:31.159Z,97.20
2023-03-06T00:45:16.662Z,97.00
2023-03-06T00:48:01.969Z,97.20
2023-03-06T00:50:47.206Z,97.20
2023-03-06T00:53:32.557Z,97.20
2023-03-06T00:56:19.940Z,97.20
2023-03-06T00:59:05.459Z,97.20
2023-03-06T01:01:50.868Z,97.20
2023-03-06T01:04:36.299Z,97.20
2023-03-06T01:07:21.698Z,97.10
2023-03-06T01:10:08.514Z,97.20
2023-03-06T01:12:54.316Z,97.00
2023-03-06T01:15:40.140Z,97.10
2023-03-06T01:18:25.506Z,97.10
2023-03-06T01:21:10.953Z,97.10
2023-03-06T01:23:56.238Z,97.00
2023-03-06T01:26:41.654Z,97.00
2023-03-06T01:29:27.071Z,97.10
2023-03-06T01:32:12.626Z,97.20
2023-03-06T01:34:58.056Z,97.10
2023-03-06T01:37:43.370Z,97.10
2023-03-06T01:40:31.645Z,97.00
2023-03-06T01:43:29.106Z,97.10
2023-03-06T01:46:29.099Z,97.00
2023-03-06T01:49:25.001Z,96.90
2023-03-06T01:52:15.960Z,96.90
2023-03-06T01:55:06.144Z,96.90
2023-03-06T01:57:57.660Z,96.80
2023-03-06T02:00:43.146Z,96.90
2023-03-06T02:03:29.874Z,96.90
2023-03-06T02:06:19.662Z,97.10
2023-03-06T02:09:06.138Z,97.10
2023-03-06T02:11:51.897Z,97.10
2023-03-06T02:14:38.082Z,97.10
2023-03-06T02:17:24.100Z,97.10
2023-03-06T02:20:35.009Z,97.10
2023-03-06T02:23:42.976Z,97.10
2023-03-06T02:26:29.453Z,97.10
2023-03-06T02:29:21.244Z,97.10
2023-03-06T02:32:06.765Z,97.10
2023-03-06T02:34:55.235Z,97.40
2023-03-06T02:37:40.608Z,97.40
2023-03-06T02:40:26.387Z,97.30
2023-03-06T02:43:13.262Z,97.40
2023-03-06T02:45:58.391Z,97.30
2023-03-06T02:48:43.566Z,97.30
2023-03-06T02:51:28.871Z,97.40
2023-03-06T02:54:14.203Z,97.50
2023-03-06T02:56:59.606Z,97.40
2023-03-06T02:59:44.924Z,97.50
2023-03-06T03:02:30.369Z,97.50
2023-03-06T03:05:16.050Z,97.50
2023-03-06T03:08:01.246Z,97.50
2023-03-06T03:10:46.622Z,97.70
2023-03-06T03:13:33.025Z,97.80
2023-03-06T03:16:18.386Z,97.80
2023-03-06T03:19:03.845Z,97.70
2023-03-06T03:21:49.912Z,97.60
2023-03-06T03:24:35.191Z,97.70
2023-03-06T03:27:20.506Z,97.70
2023-03-06T03:30:06.516Z,97.70
2023-03-06T03:32:52.066Z,97.70
2023-03-06T03:35:37.690Z,97.80
2023-03-06T03:38:23.054Z,98.00
2023-03-06T03:41:08.627Z,97.90
2023-03-06T03:43:53.712Z,98.10
2023-03-06T03:46:39.354Z,98.10
2023-03-06T03:49:24.297Z,98.40
2023-03-06T03:52:09.745Z,98.10
2023-03-06T03:54:55.069Z,98.20
2023-03-06T03:57:40.520Z,98.10
2023-03-06T04:00:26.008Z,98.40
2023-03-06T04:03:12.235Z,98.40
2023-03-06T04:05:58.032Z,98.60
2023-03-06T04:08:43.764Z,98.80
2023-03-06T04:11:28.831Z,98.90
2023-03-06T04:14:14.390Z,99.10
2023-03-06T04:16:59.898Z,98.90
2023-03-06T04:19:45.216Z,99.10
2023-03-06T04:22:30.850Z,99.10
2023-03-06T04:25:16.081Z,99.20
2023-03-06T04:28:01.669Z,99.40
2023-03-06T04:30:46.845Z,99.20
2023-03-06T04:33:32.431Z,99.20
2023-03-06T04:36:30.026Z,99.10
2023-03-06T04:39:15.280Z,99.40
2023-03-06T04:42:00.601Z,99.20
2023-03-06T04:44:46.284Z,99.40
2023-03-06T04:47:31.390Z,99.20
2023-03-06T04:50:18.015Z,99.30
2023-03-06T04:53:04.655Z,99.40
2023-03-06T04:55:49.823Z,99.60
2023-03-06T04:58:35.461Z,99.70
2023-03-06T05:01:20.950Z,99.30
2023-03-06T05:04:06.394Z,99.60
2023-03-06T05:06:51.871Z,99.60
2023-03-06T05:09:39.111Z,99.60
2023-03-06T05:12:24.460Z,99.70
2023-03-06T05:15:11.523Z,99.60
2023-03-06T05:17:56.706Z,99.60
2023-03-06T05:20:42.208Z,99.70
2023-03-06T05:23:28.521Z,99.70
2023-03-06T05:26:15.443Z,99.70
2023-03-06T05:29:00.881Z,99.80
2023-03-06T05:31:46.367Z,99.70
2023-03-06T05:34:31.748Z,99.80
2023-03-06T05:37:17.049Z,99.50
2023-03-06T05:40:06.084Z,99.60
2023-03-06T05:42:51.498Z,99.60
2023-03-06T05:45:36.933Z,99.70
2023-03-06T05:48:22.158Z,99.70
2023-03-06T05:51:07.613Z,99.80
2023-03-06T05:53:52.972Z,99.70
2023-03-06T05:56:38.396Z,99.80
2023-03-06T05:59:28.036Z,99.90
2023-03-06T06:02:13.553Z,99.90
2023-03-06T06:04:58.965Z,99.90
2023-03-06T06:07:44.318Z,99.90
2023-03-06T06:10:29.765Z,99.90
2023-03-06T06:13:15.259Z,99.90
2023-03-06T06:16:05.843Z,99.90
2023-03-06T06:18:51.041Z,99.90
2023-03-06T06:21:36.637Z,99.90
2023-03-06T06:24:25.032Z,99.90
2023-03-06T06:27:10.458Z,99.90
2023-03-06T06:29:55.836Z,99.90
2023-03-06T06:32:41.222Z,99.90
2023-03-06T06:35:27.117Z,99.90
2023-03-06T06:38:12.617Z,99.90
2023-03-06T06:41:30.713Z,99.90
2023-03-06T06:44:08.550Z,99.90
2023-03-06T06:47:22.455Z,99.90
2023-03-06T06:49:59.829Z,99.90
2023-03-06T06:52:44.899Z,99.90
2023-03-06T06:55:30.373Z,99.90
2023-03-06T06:58:16.148Z,99.90
2023-03-06T07:01:09.600Z,99.90
2023-03-06T07:03:55.411Z,99.90
2023-03-06T07:06:41.593Z,99.90
2023-03-06T07:09:26.635Z,99.90
2023-03-06T07:12:11.993Z,99.90
2023-03-06T07:14:57.264Z,99.90
2023-03-06T07:17:42.756Z,99.90
2023-03-06T07:20:28.042Z,99.90
2023-03-06T07:23:13.620Z,99.90
2023-03-06T07:25:59.157Z,99.90
2023-03-06T07:28:52.483Z,99.90
2023-03-06T07:31:38.375Z,99.90
2023-03-06T07:34:23.534Z,99.90
2023-03-06T07:37:09.014Z,99.90
2023-03-06T07:39:54.338Z,99.90
2023-03-06T07:42:39.681Z,99.90
2023-03-06T07:45:26.034Z,99.90
2023-03-06T07:48:11.163Z,99.90
2023-03-06T07:51:02.614Z,99.90
2023-03-06T07:53:49.645Z,99.90
2023-03-06T07:56:35.132Z,99.90
2023-03-06T07:59:20.789Z,99.90
2023-03-06T08:02:06.268Z,99.90
2023-03-06T08:04:53.541Z,99.90
2023-03-06T08:07:38.572Z,99.90
2023-03-06T08:10:23.864Z,99.90
2023-03-06T08:13:09.213Z,99.90
2023-03-06T08:15:54.673Z,99.90
2023-03-06T08:18:39.998Z,99.90
2023-03-06T08:21:27.426Z,99.90
2023-03-06T08:24:13.253Z,99.90
2023-03-06T08:26:58.388Z,99.90
2023-03-06T08:29:43.699Z,99.90
2023-03-06T08:32:30.093Z,99.90
2023-03-06T08:35:15.663Z,99.90
2023-03-06T08:38:01.123Z,99.90
2023-03-06T08:40:46.384Z,99.90
2023-03-06T08:43:31.853Z,99.90
2023-03-06T08:46:18.862Z,99.90
2023-03-06T08:49:04.412Z,99.90
2023-03-06T08:51:49.919Z,99.90
2023-03-06T08:54:36.119Z,99.90
2023-03-06T08:57:21.420Z,99.90
2023-03-06T09:00:08.957Z,99.90
2023-03-06T09:02:53.892Z,99.90
2023-03-06T09:05:40.916Z,99.90
2023-03-06T09:08:26.725Z,99.90
2023-03-06T09:11:14.444Z,99.90
2023-03-06T09:13:59.689Z,99.90
2023-03-06T09:16:44.978Z,99.90
2023-03-06T09:19:30.316Z,99.90
2023-03-06T09:22:15.654Z,99.90
2023-03-06T09:25:01.340Z,99.90
2023-03-06T09:27:51.425Z,99.90
2023-03-06T09:30:41.288Z,99.90
2023-03-06T09:33:28.646Z,99.90
2023-03-06T09:36:20.169Z,99.90
2023-03-06T09:39:05.309Z,99.90
2023-03-06T09:41:51.408Z,99.90
2023-03-06T09:44:41.000Z,99.90
2023-03-06T09:47:40.771Z,99.90
2023-03-06T09:50:34.758Z,99.90
2023-03-06T09:53:41.100Z,99.90
2023-03-06T09:56:31.802Z,99.90
2023-03-06T09:59:21.568Z,99.90
2023-03-06T10:02:40.424Z,99.90
2023-03-06T10:05:33.011Z,99.90
2023-03-06T10:08:44.814Z,99.90
2023-03-06T10:11:49.348Z,99.90
2023-03-06T10:14:48.486Z,99.90
2023-03-06T10:17:43.760Z,99.90
2023-03-06T10:20:37.558Z,99.90
2023-03-06T10:23:43.077Z,99.90
2023-03-06T10:26:42.239Z,99.90
2023-03-06T10:29:53.111Z,99.90
2023-03-06T10:32:58.700Z,99.90
2023-03-06T10:35:53.216Z,99.90
2023-03-06T10:38:38.874Z,99.90
2023-03-06T10:41:31.653Z,99.90
2023-03-06T10:44:18.905Z,99.90
2023-03-06T10:47:28.205Z,99.90
2023-03-06T10:50:24.260Z,99.90
2023-03-06T10:53:22.499Z,99.90
2023-03-06T10:56:09.561Z,99.90
2023-03-06T10:59:13.637Z,99.90
2023-03-06T11:02:26.174Z,99.90
2023-03-06T11:05:21.058Z,99.90
2023-03-06T11:08:21.796Z,99.90
2023-03-06T11:11:09.216Z,99.90
2023-03-06T11:13:59.023Z,99.90
2023-03-06T11:16:53.056Z,99.90
2023-03-06T11:19:38.066Z,99.90
2023-03-06T11:22:23.488Z,99.90
2023-03-06T11:25:15.674Z,99.90
2023-03-06T11:28:13.071Z,99.90
2023-03-06T11:31:13.659Z,99.90
2023-03-06T11:34:12.330Z,99.90
2023-03-06T11:37:03.380Z,99.90
2023-03-06T11:40:05.746Z,99.90
2023-03-06T11:43:01.295Z,99.90
2023-03-06T11:46:10.652Z,99.90
2023-03-06T11:49:13.249Z,99.90
2023-03-06T11:52:06.401Z,99.90
2023-03-06T11:54:55.782Z,99.90
2023-03-06T11:58:07.828Z,99.90
2023-03-06T12:01:24.281Z,99.90
2023-03-06T12:04:37.645Z,99.90
2023-03-06T12:07:29.864Z,99.90
2023-03-06T12:10:23.177Z,99.90
2023-03-06T12:13:34.591Z,99.90
2023-03-06T12:16:31.990Z,99.90
2023-03-06T12:19:41.945Z,99.90
2023-03-06T12:22:57.764Z,99.90
2023-03-06T12:25:49.065Z,99.90
2023-03-06T12:28:56.098Z,99.90
2023-03-06T12:31:52.593Z,99.90
2023-03-06T12:34:50.037Z,99.90
2023-03-06T12:38:12.961Z,99.90
2023-03-06T12:41:16.919Z,99.90
2023-03-06T12:44:20.959Z,99.90
2023-03-06T12:47:14.692Z,99.90
2023-03-06T12:50:05.263Z,99.90
2023-03-06T12:52:53.403Z,99.90
2023-03-06T12:55:48.554Z,99.90
2023-03-06T12:58:35.540Z,99.90
2023-03-06T13:01:47.688Z,99.90
2023-03-06T13:04:44.294Z,99.90
2023-03-06T13:07:39.090Z,99.90
2023-03-06T13:10:35.765Z,99.90
2023-03-06T13:13:41.174Z,99.90
2023-03-06T13:16:32.201Z,99.90
2023-03-06T13:19:19.621Z,99.90
2023-03-06T13:22:14.710Z,99.90
2023-03-06T13:25:18.376Z,99.90
2023-03-06T13:28:04.699Z,99.90
2023-03-06T13:30:52.020Z,99.90
2023-03-06T13:33:38.700Z,99.90
2023-03-06T13:36:36.261Z,99.90
2023-03-06T13:39:22.677Z,99.90
2023-03-06T13:42:30.513Z,99.90
2023-03-06T13:45:45.346Z,99.90
2023-03-06T13:48:44.684Z,99.90
2023-03-06T13:51:37.734Z,99.90
2023-03-06T13:55:00.632Z,99.90
2023-03-06T13:57:58.205Z,99.90
2023-03-06T14:01:04.516Z,99.90
2023-03-06T14:04:08.152Z,99.90
2023-03-06T14:07:11.808Z,99.90
2023-03-06T14:10:02.098Z,99.90
2023-03-06T14:12:50.534Z,99.90
2023-03-06T14:15:53.922Z,99.90
2023-03-06T14:18:46.434Z,99.90
2023-03-06T14:21:47.279Z,99.90
2023-03-06T14:24:37.989Z,99.90
2023-03-06T14:27:39.655Z,99.90
2023-03-06T14:30:26.349Z,99.90
2023-03-06T14:33:12.044Z,99.90
2023-03-06T14:36:01.251Z,99.90
2023-03-06T14:38:51.336Z,99.90
2023-03-06T14:41:37.184Z,99.90
2023-03-06T14:44:26.466Z,99.90
2023-03-06T14:47:29.108Z,99.90
2023-03-06T14:50:29.325Z,99.90
2023-03-06T14:53:28.501Z,99.90
2023-03-06T14:56:26.285Z,99.90
2023-03-06T14:59:16.365Z,99.90
2023-03-06T15:02:06.380Z,99.90
2023-03-06T15:05:00.560Z,99.90
2023-03-06T15:07:45.965Z,99.90
2023-03-06T15:10:34.090Z,99.90
2023-03-06T15:13:23.128Z,99.90
2023-03-06T15:16:25.193Z,99.90
2023-03-06T15:19:22.203Z,99.90
2023-03-06T15:22:25.775Z,99.90
2023-03-06T15:25:26.687Z,99.90
2023-03-06T15:28:30.290Z,99.90
2023-03-06T15:31:21.232Z,99.90
2023-03-06T15:34:06.371Z,99.90
2023-03-06T15:36:57.461Z,99.90
2023-03-06T15:39:43.218Z,99.90
2023-03-06T15:42:28.879Z,99.90
2023-03-06T15:45:22.908Z,99.90
2023-03-06T15:48:16.834Z,99.90
2023-03-06T15:51:03.105Z,99.90
2023-03-06T15:53:49.279Z,99.90
2023-03-06T15:56:39.474Z,99.90
2023-03-06T15:59:27.850Z,99.90
2023-03-06T16:02:19.833Z,99.90
2023-03-06T16:05:15.190Z,99.90
2023-03-06T16:08:00.433Z,99.90
2023-03-06T16:10:46.775Z,99.90
2023-03-06T16:13:33.130Z,99.90
2023-03-06T16:16:22.247Z,99.90
2023-03-06T16:19:25.221Z,99.90
2023-03-06T16:22:12.014Z,99.90
2023-03-06T16:24:57.212Z,99.90
2023-03-06T16:27:49.458Z,99.90
2023-03-06T16:30:35.613Z,99.90
2023-03-06T16:33:20.911Z,99.90
2023-03-06T16:36:13.400Z,99.90
2023-03-06T16:38:58.876Z,99.90
2023-03-06T16:41:45.870Z,99.90
2023-03-06T16:44:31.368Z,99.90
2023-03-06T16:47:17.065Z,99.90
2023-03-06T16:50:03.391Z,99.90
2023-03-06T16:52:49.132Z,99.90
2023-03-06T16:55:34.273Z,99.90
2023-03-06T16:58:19.727Z,99.90
2023-03-06T17:01:05.932Z,99.90
2023-03-06T17:03:51.048Z,99.90
2023-03-06T17:06:36.756Z,99.90
2023-03-06T17:09:22.102Z,99.90
2023-03-06T17:12:07.765Z,99.90
2023-03-06T17:14:53.284Z,99.90
2023-03-06T17:17:38.435Z,99.90
2023-03-06T17:20:23.880Z,99.90
2023-03-06T17:23:09.302Z,99.90
2023-03-06T17:26:10.088Z,99.90
2023-03-06T17:28:56.141Z,99.90
2023-03-06T17:31:41.839Z,99.90
2023-03-06T17:34:28.858Z,99.90
2023-03-06T17:37:14.267Z,99.90
2023-03-06T17:39:59.898Z,99.90
2023-03-06T17:42:44.988Z,99.90
2023-03-06T17:45:30.657Z,99.90
2023-03-06T17:48:16.104Z,99.90
2023-03-06T17:51:02.023Z,99.90
2023-03-06T17:53:47.334Z,99.90
2023-03-06T17:56:32.742Z,99.90
2023-03-06T17:59:18.495Z,99.90
2023-03-06T18:02:06.181Z,99.90
2023-03-06T18:04:51.685Z,99.90
2023-03-06T18:07:37.663Z,99.90
2023-03-06T18:10:23.812Z,99.90
2023-03-06T18:13:09.712Z,99.90
2023-03-06T18:15:55.237Z,99.90
2023-03-06T18:18:40.740Z,99.90
2023-03-06T18:21:26.320Z,99.90
2023-03-06T18:24:12.370Z,99.90
2023-03-06T18:26:57.462Z,99.90
2023-03-06T18:29:43.054Z,99.90
2023-03-06T18:32:28.415Z,99.90
2023-03-06T18:35:13.824Z,99.90
2023-03-06T18:37:59.225Z,99.90
2023-03-06T18:40:44.501Z,99.90
2023-03-06T18:43:29.893Z,99.90
2023-03-06T18:46:15.109Z,99.90
2023-03-06T18:49:00.971Z,99.90
2023-03-06T18:51:48.111Z,99.90
2023-03-06T18:54:33.512Z,99.90
2023-03-06T18:57:19.438Z,99.90
2023-03-06T19:00:06.164Z,99.90
2023-03-06T19:02:51.310Z,99.90
2023-03-06T19:05:45.347Z,99.90
2023-03-06T19:08:31.039Z,99.90
2023-03-06T19:11:17.061Z,99.90
2023-03-06T19:14:02.181Z,99.90
2023-03-06T19:16:47.808Z,99.90
2023-03-06T19:19:33.391Z,99.90
2023-03-06T19:22:18.395Z,99.90
2023-03-06T19:25:04.112Z,99.90
2023-03-06T19:27:49.333Z,99.90
2023-03-06T19:30:34.631Z,99.90
2023-03-06T19:33:20.236Z,99.90
2023-03-06T19:36:06.638Z,99.90
2023-03-06T19:38:56.660Z,99.90
2023-03-06T19:41:42.008Z,99.90
2023-03-06T19:44:27.568Z,99.90
2023-03-06T19:47:12.880Z,99.90
2023-03-06T19:49:58.339Z,99.90
2023-03-06T19:52:43.889Z,99.90
2023-03-06T19:55:29.684Z,99.90
2023-03-06T19:58:15.296Z,99.90
2023-03-06T20:01:09.714Z,99.90
2023-03-06T20:03:58.932Z,99.90
2023-03-06T20:06:48.116Z,99.90
2023-03-06T20:09:33.939Z,99.90
2023-03-06T20:12:19.190Z,99.90
2023-03-06T20:15:05.316Z,99.90
2023-03-06T20:17:50.443Z,99.90
2023-03-06T20:20:37.762Z,99.90
2023-03-06T20:23:22.796Z,99.90
2023-03-06T20:26:12.982Z,99.90
2023-03-06T20:28:59.112Z,99.90
2023-03-06T20:31:44.185Z,99.90
2023-03-06T20:34:29.906Z,99.90
2023-03-06T20:37:15.211Z,99.90
2023-03-06T20:40:00.315Z,99.90
2023-03-06T20:42:45.637Z,99.90
2023-03-06T20:45:31.264Z,99.90
2023-03-06T20:48:16.442Z,99.90
2023-03-06T20:51:08.201Z,99.90
2023-03-06T20:53:53.874Z,99.90
2023-03-06T20:56:41.123Z,99.90
2023-03-06T20:59:26.238Z,99.90
2023-03-06T21:02:11.606Z,99.90
2023-03-06T21:04:58.399Z,99.90
2023-03-06T21:07:44.106Z,99.90
2023-03-06T21:10:31.024Z,99.90
2023-03-06T21:13:17.064Z,99.90
2023-03-06T21:16:06.905Z,99.90
2023-03-06T21:18:54.845Z,99.90
2023-03-06T21:21:39.948Z,99.90
2023-03-06T21:24:25.331Z,99.90
2023-03-06T21:27:10.573Z,99.90
2023-03-06T21:29:56.632Z,99.90
2023-03-06T21:32:42.054Z,99.90
2023-03-06T21:35:27.424Z,99.90
2023-03-06T21:38:14.142Z,99.90
2023-03-06T21:41:09.989Z,99.90
2023-03-06T21:43:56.888Z,99.90
2023-03-06T21:46:42.164Z,99.90
2023-03-06T21:49:29.250Z,99.90
2023-03-06T21:52:14.535Z,99.90
2023-03-06T21:54:59.776Z,99.90
2023-03-06T21:57:50.665Z,99.90
2023-03-06T22:00:36.661Z,99.90
2023-03-06T22:03:22.093Z,99.90
2023-03-06T22:06:12.674Z,99.90
2023-03-06T22:08:59.701Z,99.90
2023-03-06T22:11:45.042Z,99.90
2023-03-06T22:14:30.578Z,99.90
2023-03-06T22:17:16.103Z,99.90
2023-03-06T22:20:01.578Z,99.90
2023-03-06T22:22:46.940Z,99.90
2023-03-06T22:25:34.680Z,99.90
2023-03-06T22:28:19.720Z,99.90
2023-03-06T22:31:05.173Z,99.90
2023-03-06T22:33:52.388Z,99.90
2023-03-06T22:36:37.879Z,99.90
2023-03-06T22:39:23.615Z,99.90
2023-03-06T22:42:08.613Z,99.90
2023-03-06T22:44:54.176Z,99.90
2023-03-06T22:47:39.491Z,99.90
2023-03-06T22:50:24.950Z,99.90
2023-03-06T22:53:10.269Z,99.90
2023-03-06T22:55:59.122Z,99.90
2023-03-06T22:58:44.927Z,99.90
2023-03-06T23:01:33.662Z,99.90
2023-03-06T23:04:18.774Z,99.90
2023-03-06T23:07:04.559Z,99.90
2023-03-06T23:09:49.460Z,99.90
2023-03-06T23:12:34.899Z,99.90
2023-03-06T23:15:20.462Z,99.90
2023-03-06T23:18:06.015Z,99.90
2023-03-06T23:20:51.156Z,99.90
2023-03-06T23:23:37.418Z,99.90
2023-03-06T23:26:25.658Z,99.90
2023-03-06T23:29:11.464Z,99.90
2023-03-06T23:31:56.572Z,99.90
2023-03-06T23:34:42.031Z,99.90
2023-03-06T23:37:27.504Z,99.90
2023-03-06T23:40:13.655Z,99.90
2023-03-06T23:42:59.047Z,99.90
2023-03-06T23:45:52.981Z,99.90
2023-03-06T23:48:40.586Z,99.90
2023-03-06T23:51:25.930Z,99.90
2023-03-06T23:54:11.512Z,99.90
2023-03-06T23:56:56.636Z,99.90
2023-03-06T23:59:43.816Z,99.90
